Sunday, November 18, 2018, 9:21 AM EST
Back to Local

KROC, Greater Rochester International

Location: Rochester, NY, United States Lat: 43.117
Local Time: 9:21 AM EST (14:21 GMT) Lon: -77.683
Time Zone: US/Eastern Elev: 557 ft

Show me the last for .
Show Decoded

2018-11-18 08:54 METAR KROC 181354Z 18003KT 10SM BKN040 OVC047 01/M05 A3032 RMK AO2 SLP278
                 T00061050 =
2018-11-18 07:54 METAR KROC 181254Z 18003KT 10SM OVC043 00/M04 A3032 RMK AO2 SLP277 T00001044 =
2018-11-18 06:54 METAR KROC 181154Z 21003KT 10SM OVC045 M01/M03 A3033 RMK AO2 SLP279 4/002
                 T10061033 10006 21017 53001 =
2018-11-18 05:54 METAR KROC 181054Z 22003KT 10SM OVC048 M01/M03 A3033 RMK AO2 SLP279 T10111033 =
2018-11-18 04:54 METAR KROC 180954Z 22003KT 10SM OVC047 M01/M03 A3032 RMK AO2 SLP277 T10061033 =
2018-11-18 03:54 METAR KROC 180854Z 25003KT 10SM OVC050 M01/M03 A3032 RMK AO2 SLP278 T10111028
                 55002 =
2018-11-18 02:54 METAR KROC 180754Z 25003KT 10SM OVC050 M01/M04 A3032 RMK AO2 SLP278 T10111039 =
2018-11-18 01:54 METAR KROC 180654Z 23004KT 10SM BKN050 M01/M04 A3033 RMK AO2 SLP279 T10061044 =
2018-11-18 00:54 METAR KROC 180554Z 35004KT 10SM OVC050 01/M04 A3033 RMK AO2 SLP280 4/002
                 T00061044 10017 20006 51007 =
2018-11-17 23:54 METAR KROC 180454Z 26003KT 10SM OVC041 01/M04 A3032 RMK AO2 SLP277 T00061039
                 400390006 =
2018-11-17 22:54 METAR KROC 180354Z 31003KT 10SM OVC044 01/M04 A3032 RMK AO2 SLP278 T00061044 =
2018-11-17 21:54 METAR KROC 180254Z 32004KT 10SM OVC048 01/M04 A3031 RMK AO2 SLP273 T00111039
                 51010 =
2018-11-17 19:54 METAR KROC 180054Z 31007KT 10SM BKN036 OVC045 02/M03 A3030 RMK AO2 SLP270
                 T00171033 =
2018-11-17 19:01 METAR KROC 180001Z 31005KT 10SM FEW032 OVC040 02/M01 A3028 RMK AO2 T00171011 =
2018-11-17 18:54 METAR KROC 172354Z 30004KT 10SM BKN029 OVC040 02/M01 A3028 RMK AO2 SLP263 60000
                 T00171011 10028 20017 53026 =
2018-11-17 17:54 METAR KROC 172254Z COR 30006KT 10SM OVC029 02/M01 A3025 RMK AO2 SNB07E29 SLP254
                 P0000 T00171011 =
2018-11-17 17:23 METAR KROC 172223Z 30010KT 9SM -SN SCT024 BKN029 OVC037 02/M02 A3024 RMK AO2
                 SNB07 P0000 T00221017 =
2018-11-17 16:54 METAR KROC 172154Z 27007KT 10SM OVC046 03/M03 A3022 RMK AO2 SLP242 T00281033 =
2018-11-17 15:54 METAR KROC 172054Z 28012G18KT 10SM OVC049 03/M03 A3020 RMK AO2 SLP235 T00281033
                 53013 =
2018-11-17 14:54 METAR KROC 171954Z 27009KT 10SM OVC037 03/M03 A3018 RMK AO2 SLP228 T00281033 =
2018-11-17 13:54 METAR KROC 171854Z 29013G16KT 10SM OVC035 03/M03 A3016 RMK AO2 SLP222 T00281028
                 =
2018-11-17 13:52 METAR KROC 171852Z 29013G16KT 10SM OVC035 03/M03 A3016 RMK AO2 =
2018-11-17 12:54 METAR KROC 171754Z 29010G18KT 10SM SCT018 BKN029 OVC035 03/M02 A3015 RMK AO2
                 DZE24 SLP218 4/003 933006 P0000 60000 T00281017 10039 20022 51006 =
2018-11-17 11:54 METAR KROC 171654Z 30011G18KT 10SM -DZ BKN017 BKN026 OVC032 02/00 A3015 RMK AO2
                 SLP219 P0000 T00220000 =
2018-11-17 10:54 METAR KROC 171554Z 31009KT 10SM -DZ BKN017 OVC026 03/00 A3015 RMK AO2 DZB1459
                 SLP219 P0000 T00280000 =
2018-11-17 10:04 METAR KROC 171504Z 30014G18KT 10SM -DZ BKN020 BKN027 OVC044 03/00 A3014 =
2018-11-17 09:54 METAR KROC 171454Z 29013KT 10SM FEW020 BKN036 OVC044 03/M01 A3013 RMK AO2 SLP213
                 T00331006 51020 =

Support USWX by starting your Amazon purchase here.